Decoded Metar for KCKM ( in ) (IATA:) | Meteo·Mobile Aviation Weather
aviador You're here:

KCKM Decoded Metar

in
Report Time2018-08-21 07:35:00
UTC Time2018-08-21 07:50:53
Flight Rules vfr VFR
Wind220° at 03 kt
W.Decomp.*RWY 18: 2.3 kt HW 1.9 kt RCW
W.Rank220° ranks 20
Current wind is below 220° avg. (7.6)
Visibility9999 m
Phenomena:N/A
Clouds:Overcast 055 Hf
Ceiling5,500 ft
Temp22°C
Dew Point22°C (100% RH)
QNH1014 hPa
Raw Report
KCKM 210735Z AUTO 22003KT 10SM OVC055 22/22 A2995 RMK A01=

Extra information for KCKM:More info

Social comments